Time;durP1;ratioP1;P1;durP2;ratioP2;P2;SDS_P1;SDS_P2;PMS_P1;PMS_P2;Temp;Humidity;BMP_temperature;BMP_pressure;BME280_temperature;BME280_humidity;BME280_pressure;Samples;Min_cycle;Max_cycle;Signal;HPM_P1;HPM_P2
2022/08/16 00:01:16;;;;;;;4.13;3.10;;;;;;;17.78;97.87;95034.03;5086151;28;20048;-74
2022/08/16 00:03:41;;;;;;;4.70;2.90;;;;;;;17.74;98.40;95027.81;5086002;28;20104;-74
2022/08/16 00:06:07;;;;;;;4.40;2.90;;;;;;;17.68;98.85;95021.13;5088408;28;20119;-74
2022/08/16 00:08:32;;;;;;;5.43;3.20;;;;;;;17.77;98.16;95032.50;5083241;28;20041;-74
2022/08/16 00:10:58;;;;;;;5.72;3.17;;;;;;;17.80;98.08;95034.50;5091061;28;20048;-74
2022/08/16 00:13:23;;;;;;;5.95;3.50;;;;;;;17.72;98.94;95030.03;5083815;28;20046;-75
2022/08/16 00:15:49;;;;;;;6.07;3.42;;;;;;;17.76;98.97;95036.25;5089075;28;20086;-74
2022/08/16 00:18:16;;;;;;;4.50;2.90;;;;;;;17.63;100.00;95032.00;5090507;28;20048;-74
2022/08/16 00:20:45;;;;;;;4.68;3.20;;;;;;;17.73;99.27;95026.25;5084120;28;20048;-74
2022/08/16 00:23:11;;;;;;;5.38;3.63;;;;;;;17.69;99.61;95030.69;5082557;28;20045;-74
2022/08/16 00:25:37;;;;;;;5.97;3.38;;;;;;;17.59;100.00;95031.06;5084255;28;20040;-74
2022/08/16 00:28:05;;;;;;;5.38;3.38;;;;;;;17.67;100.00;95030.25;5083988;28;20126;-74
2022/08/16 00:30:31;;;;;;;6.15;3.30;;;;;;;17.69;100.00;95030.69;5082430;28;20044;-74
2022/08/16 00:32:58;;;;;;;5.90;3.40;;;;;;;17.65;100.00;95029.75;5084561;28;20044;-75
2022/08/16 00:35:29;;;;;;;7.35;3.58;;;;;;;17.65;100.00;95027.09;5077306;28;20493;-75
2022/08/16 00:37:55;;;;;;;5.53;3.65;;;;;;;17.61;100.00;95023.53;5084764;28;20048;-75
2022/08/16 00:40:24;;;;;;;7.53;3.72;;;;;;;17.63;100.00;95022.13;5080554;28;20040;-75
2022/08/16 00:42:50;;;;;;;8.05;4.28;;;;;;;17.60;100.00;95027.31;5083393;28;20048;-75
2022/08/16 00:45:39;;;;;;;6.30;3.60;;;;;;;17.51;100.00;95023.94;5087676;28;20044;-75
2022/08/16 00:48:10;;;;;;;6.18;4.20;;;;;;;17.59;100.00;95028.41;5085605;28;20118;-75
2022/08/16 00:50:39;;;;;;;6.72;3.80;;;;;;;17.56;100.00;95027.19;5082230;28;20043;-75
2022/08/16 00:53:06;;;;;;;6.05;3.60;;;;;;;17.56;100.00;95021.09;5081043;28;20049;-75
2022/08/16 00:55:35;;;;;;;8.45;4.20;;;;;;;17.55;100.00;95019.53;5086943;28;20052;-76
2022/08/16 00:58:01;;;;;;;7.35;4.00;;;;;;;17.44;100.00;95019.94;5085491;28;20040;-75
2022/08/16 01:00:30;;;;;;;5.50;4.00;;;;;;;17.46;100.00;95025.69;5082865;28;20094;-76
2022/08/16 01:02:59;;;;;;;7.45;3.90;;;;;;;17.48;100.00;95020.84;5080809;28;20044;-75
2022/08/16 01:05:27;;;;;;;8.40;4.13;;;;;;;17.56;100.00;95016.53;5091960;28;20040;-76
2022/08/16 01:07:54;;;;;;;6.15;3.60;;;;;;;17.53;100.00;95021.72;5086768;28;20071;-76
2022/08/16 01:10:22;;;;;;;7.43;4.38;;;;;;;17.48;100.00;95020.84;5089445;28;20044;-76
2022/08/16 01:12:48;;;;;;;7.68;4.10;;;;;;;17.45;100.00;95026.78;5076885;28;20048;-76
2022/08/16 01:15:15;;;;;;;6.95;4.10;;;;;;;17.45;100.00;95016.13;5079978;28;20048;-75
2022/08/16 01:17:43;;;;;;;7.20;4.22;;;;;;;17.40;100.00;95013.69;5085197;28;20497;-75
2022/08/16 01:20:11;;;;;;;8.32;4.40;;;;;;;17.42;100.00;95016.03;5082647;28;20437;-75
2022/08/16 01:23:06;;;;;;;6.47;4.05;;;;;;;17.29;100.00;95017.84;5088911;28;20036;-76
2022/08/16 01:25:35;;;;;;;7.50;4.30;;;;;;;17.32;100.00;95017.19;5082943;28;20044;-75
2022/08/16 01:28:06;;;;;;;6.78;4.20;;;;;;;17.33;100.00;95008.13;5082780;28;20040;-75
2022/08/16 01:30:36;;;;;;;8.00;4.40;;;;;;;17.44;100.00;95017.25;5079936;28;20033;-75
2022/08/16 01:33:05;;;;;;;6.25;4.15;;;;;;;17.42;100.00;95016.78;5089851;28;20036;-75
2022/08/16 01:35:55;;;;;;;7.43;4.65;;;;;;;17.45;100.00;95024.13;5085054;28;20036;-75
2022/08/16 01:38:32;;;;;;;6.95;4.43;;;;;;;17.38;100.00;95018.53;5084117;28;20120;-75
2022/08/16 01:41:28;;;;;;;8.88;4.45;;;;;;;17.33;100.00;95020.66;5088713;28;20067;-75
2022/08/16 01:43:54;;;;;;;7.03;4.25;;;;;;;17.39;100.00;95014.78;5078086;28;20587;-75
2022/08/16 01:46:27;;;;;;;7.43;4.78;;;;;;;17.42;100.00;95016.78;5083238;28;20040;-75
2022/08/16 01:48:58;;;;;;;6.78;3.90;;;;;;;17.31;100.00;95010.31;5084685;28;20032;-75
2022/08/16 01:51:26;;;;;;;6.22;4.22;;;;;;;17.33;100.00;95013.44;5089985;28;20051;-75
2022/08/16 01:53:51;;;;;;;8.13;4.07;;;;;;;17.36;100.00;95010.13;5088345;28;20033;-74
2022/08/16 01:56:18;;;;;;;6.05;4.20;;;;;;;17.32;100.00;95009.22;5087010;28;20059;-75
2022/08/16 01:58:44;;;;;;;9.35;4.45;;;;;;;17.36;100.00;95007.47;5078285;28;20520;-74
2022/08/16 02:01:10;;;;;;;7.85;4.60;;;;;;;17.37;100.00;95003.72;5090198;28;20051;-75
2022/08/16 02:03:35;;;;;;;7.63;4.63;;;;;;;17.32;100.00;95006.56;5076351;28;20112;-75
2022/08/16 02:06:01;;;;;;;8.10;4.15;;;;;;;17.29;100.00;95002.66;5087109;28;20040;-75
2022/08/16 02:08:27;;;;;;;8.50;4.55;;;;;;;17.22;100.00;94996.31;5085986;28;20032;-75
2022/08/16 02:10:53;;;;;;;7.13;4.22;;;;;;;17.22;100.00;94996.31;5080736;28;20107;-75
2022/08/16 02:13:20;;;;;;;6.82;4.18;;;;;;;17.26;100.00;94991.91;5082527;28;20419;-75
2022/08/16 02:15:46;;;;;;;9.23;4.40;;;;;;;17.24;100.00;94988.78;5089918;28;20032;-76
2022/08/16 02:18:12;;;;;;;8.45;4.32;;;;;;;17.28;100.00;94989.69;5083781;28;20085;-76
2022/08/16 02:20:41;;;;;;;6.55;4.22;;;;;;;17.23;100.00;94987.22;5082589;28;20041;-76
2022/08/16 02:23:07;;;;;;;8.60;4.28;;;;;;;17.18;100.00;94992.72;5086895;28;20093;-76
2022/08/16 02:25:34;;;;;;;7.32;4.00;;;;;;;17.16;100.00;94992.28;5086716;28;20472;-76
2022/08/16 02:28:00;;;;;;;8.13;3.97;;;;;;;17.13;100.00;94991.81;5088485;28;20064;-76
2022/08/16 02:30:28;;;;;;;8.32;4.50;;;;;;;17.12;100.00;94992.94;5083689;28;20060;-75
2022/08/16 02:32:53;;;;;;;9.18;3.80;;;;;;;17.09;100.00;94998.88;5085623;28;20094;-76
2022/08/16 02:35:20;;;;;;;7.63;4.40;;;;;;;17.04;100.00;94993.78;5084439;28;20615;-75
2022/08/16 02:37:46;;;;;;;8.85;4.57;;;;;;;17.02;100.00;94992.53;5083595;28;20075;-75
2022/08/16 02:40:15;;;;;;;8.90;4.35;;;;;;;16.97;100.00;94985.53;5081299;28;20596;-76
2022/08/16 02:42:46;;;;;;;8.10;4.45;;;;;;;16.95;100.00;94982.41;5080411;28;20047;-75
2022/08/16 02:45:12;;;;;;;8.73;4.47;;;;;;;16.93;100.00;94979.31;5081312;28;20044;-75
2022/08/16 02:47:38;;;;;;;8.88;4.70;;;;;;;16.83;100.00;94985.75;5090656;28;20516;-75
2022/08/16 02:50:06;;;;;;;6.80;4.13;;;;;;;16.75;100.00;94990.00;5084633;28;20547;-75
2022/08/16 02:52:31;;;;;;;6.40;3.80;;;;;;;16.68;100.00;94983.63;5086256;28;20051;-75
2022/08/16 02:54:57;;;;;;;7.78;4.18;;;;;;;16.57;100.00;94988.53;5081911;28;20044;-75
2022/08/16 02:57:23;;;;;;;6.90;4.32;;;;;;;16.43;100.00;94989.53;5076738;28;20041;-76
2022/08/16 02:59:49;;;;;;;9.93;4.63;;;;;;;16.29;100.00;94988.94;5078107;28;20411;-75
2022/08/16 03:02:15;;;;;;;9.13;4.53;;;;;;;16.25;100.00;94993.34;5086906;28;20130;-75
2022/08/16 03:04:41;;;;;;;8.55;4.22;;;;;;;16.20;100.00;95001.50;5082995;28;20040;-75
2022/08/16 03:07:07;;;;;;;7.45;4.50;;;;;;;16.14;100.00;95002.75;5090074;28;20032;-75
2022/08/16 03:09:34;;;;;;;7.03;4.30;;;;;;;16.02;100.00;95006.84;5081946;28;20071;-75
2022/08/16 03:11:59;;;;;;;6.60;4.10;;;;;;;15.99;100.00;95001.38;5078529;28;20036;-75
2022/08/16 03:14:25;;;;;;;7.05;4.05;;;;;;;16.01;100.00;95004.50;5080342;28;20036;-75
2022/08/16 03:16:51;;;;;;;8.98;4.53;;;;;;;15.98;100.00;95000.59;5086257;28;20115;-75
2022/08/16 03:19:16;;;;;;;8.45;3.92;;;;;;;15.95;100.00;95003.91;5084044;28;20035;-75
2022/08/16 03:21:42;;;;;;;7.13;4.35;;;;;;;15.91;100.00;94997.66;5075737;28;20043;-74
2022/08/16 03:24:08;;;;;;;8.48;4.35;;;;;;;15.83;100.00;95007.22;5082089;28;20037;-74
2022/08/16 03:26:34;;;;;;;11.65;5.30;;;;;;;15.63;100.00;95005.94;5085937;28;20073;-74
2022/08/16 03:28:59;;;;;;;9.35;4.65;;;;;;;15.65;100.00;95009.06;5076097;28;20040;-75
2022/08/16 03:31:25;;;;;;;6.68;4.32;;;;;;;15.72;100.00;95009.38;5077401;28;20051;-76
2022/08/16 03:33:51;;;;;;;8.45;4.82;;;;;;;15.73;100.00;95010.94;5086796;28;20047;-75
2022/08/16 03:36:16;;;;;;;8.27;4.32;;;;;;;15.69;100.00;95017.94;5079375;28;20044;-75
2022/08/16 03:38:42;;;;;;;8.65;4.40;;;;;;;15.67;100.00;95017.47;5075750;28;20063;-75
2022/08/16 03:41:08;;;;;;;6.28;4.15;;;;;;;15.61;100.00;95018.72;5083573;28;20036;-75
2022/08/16 03:43:35;;;;;;;6.35;4.22;;;;;;;15.68;100.00;95019.03;5086615;28;20067;-75
2022/08/16 03:46:01;;;;;;;10.93;4.53;;;;;;;15.46;100.00;95025.28;5083228;28;20047;-76
2022/08/16 03:48:31;;;;;;;9.57;4.53;;;;;;;15.36;100.00;95023.72;5082315;28;20040;-75
2022/08/16 03:50:58;;;;;;;7.13;4.07;;;;;;;15.26;100.00;95029.34;5080180;28;20116;-75
2022/08/16 03:53:24;;;;;;;7.93;4.22;;;;;;;14.98;100.00;95024.28;5087966;28;20044;-76
2022/08/16 03:55:50;;;;;;;9.45;4.90;;;;;;;14.76;100.00;95016.47;5088406;28;20051;-76
2022/08/16 03:58:16;;;;;;;11.52;4.40;;;;;;;14.96;100.00;95023.84;5075115;28;20032;-76
2022/08/16 04:00:43;;;;;;;6.88;4.07;;;;;;;14.97;100.00;95022.75;5078312;28;20041;-76
2022/08/16 04:03:08;;;;;;;7.03;4.00;;;;;;;15.06;100.00;95015.59;5086263;28;20085;-75
2022/08/16 04:05:36;;;;;;;8.63;4.20;;;;;;;15.15;100.00;95017.47;5089648;28;20042;-75
2022/08/16 04:08:04;;;;;;;8.80;4.20;;;;;;;15.16;100.00;95019.03;5079190;28;20624;-75
2022/08/16 04:10:30;;;;;;;7.82;4.15;;;;;;;15.08;100.00;95017.91;5080989;28;20098;-75
2022/08/16 04:12:56;;;;;;;6.47;4.05;;;;;;;15.03;100.00;95029.47;5085123;28;20040;-75
2022/08/16 04:15:21;;;;;;;7.93;3.90;;;;;;;14.92;100.00;95025.53;5088897;28;20559;-76
2022/08/16 04:17:47;;;;;;;14.00;4.75;;;;;;;14.90;100.00;95011.81;5081082;28;20060;-76
2022/08/16 04:20:13;;;;;;;7.75;4.47;;;;;;;14.98;100.00;95008.41;5077636;28;20094;-76
2022/08/16 04:22:42;;;;;;;7.28;3.95;;;;;;;14.94;100.00;95018.06;5079806;28;20037;-76
2022/08/16 04:25:09;;;;;;;8.27;4.55;;;;;;;14.92;100.00;95007.00;5084574;28;20406;-75
2022/08/16 04:27:35;;;;;;;9.10;4.68;;;;;;;14.84;100.00;95021.78;5087583;28;20039;-75
2022/08/16 04:30:05;;;;;;;9.73;4.20;;;;;;;14.84;100.00;95021.78;5086310;28;20040;-75
2022/08/16 04:32:31;;;;;;;7.22;3.92;;;;;;;14.79;100.00;95023.78;5087716;28;20437;-75
2022/08/16 04:34:56;;;;;;;7.50;4.40;;;;;;;14.77;100.00;95020.66;5084361;28;20043;-75
2022/08/16 04:37:22;;;;;;;9.40;4.15;;;;;;;14.70;100.00;95021.91;5080455;28;20049;-75
2022/08/16 04:39:47;;;;;;;10.18;4.63;;;;;;;14.75;100.00;95020.19;5086500;28;20039;-75
2022/08/16 04:42:16;;;;;;;8.00;4.28;;;;;;;14.82;100.00;95025.81;5078045;28;20506;-75
2022/08/16 04:44:42;;;;;;;9.45;4.47;;;;;;;14.88;100.00;95032.53;5093577;28;20035;-75
2022/08/16 04:47:08;;;;;;;7.97;4.47;;;;;;;14.81;100.00;95034.84;5084687;28;20048;-75
2022/08/16 04:49:34;;;;;;;8.25;4.47;;;;;;;14.78;100.00;95036.25;5081937;28;20472;-75
2022/08/16 04:51:59;;;;;;;11.00;5.10;;;;;;;14.79;100.00;95037.03;5089840;28;20063;-75
2022/08/16 04:54:25;;;;;;;8.57;4.80;;;;;;;14.84;100.00;95042.19;5092111;28;20032;-76
2022/08/16 04:56:50;;;;;;;7.63;4.80;;;;;;;14.81;100.00;95040.16;5086156;28;20040;-75
2022/08/16 04:59:16;;;;;;;9.65;4.68;;;;;;;14.86;100.00;95034.72;5085281;28;20035;-75
2022/08/16 05:01:41;;;;;;;8.70;4.95;;;;;;;14.91;100.00;95037.22;5086231;28;20040;-75
2022/08/16 05:04:07;;;;;;;10.35;4.68;;;;;;;14.88;100.00;95029.88;5093709;28;20036;-75
2022/08/16 05:06:33;;;;;;;11.00;5.00;;;;;;;14.94;100.00;95044.56;5075447;28;20631;-75
2022/08/16 05:08:58;;;;;;;8.32;4.35;;;;;;;14.94;100.00;95044.56;5086185;28;20071;-75
2022/08/16 05:11:26;;;;;;;7.25;4.18;;;;;;;14.98;100.00;95037.53;5088425;28;20776;-75
2022/08/16 05:13:51;;;;;;;11.65;4.35;;;;;;;14.89;100.00;95042.06;5088369;28;20123;-75
2022/08/16 05:16:22;;;;;;;8.00;4.85;;;;;;;15.02;100.00;95043.78;5088569;28;20040;-74
2022/08/16 05:18:50;;;;;;;9.23;5.05;;;;;;;15.02;100.00;95041.13;5081000;28;20047;-75
2022/08/16 05:21:15;;;;;;;8.68;4.53;;;;;;;14.98;100.00;95037.53;5088996;28;20044;-75
2022/08/16 05:23:41;;;;;;;8.63;4.57;;;;;;;15.03;100.00;95041.94;5089629;28;20039;-76
2022/08/16 05:26:07;;;;;;;12.43;5.13;;;;;;;14.97;100.00;95028.06;5087036;28;20673;-76
2022/08/16 05:28:32;;;;;;;9.55;4.72;;;;;;;15.00;100.00;95048.63;5087014;27;20553;-76
2022/08/16 05:30:58;;;;;;;8.65;5.13;;;;;;;14.96;100.00;95052.97;5086811;28;20156;-76
2022/08/16 05:33:24;;;;;;;14.85;4.70;;;;;;;14.99;100.00;95047.06;5083933;28;20044;-75
2022/08/16 05:35:50;;;;;;;11.18;4.38;;;;;;;14.96;100.00;95047.69;5086659;28;20041;-75
2022/08/16 05:38:17;;;;;;;14.07;4.85;;;;;;;15.06;100.00;95047.38;5089483;28;20570;-75
2022/08/16 05:40:42;;;;;;;16.52;4.68;;;;;;;15.13;100.00;95056.75;5081324;28;20033;-76
2022/08/16 05:43:08;;;;;;;9.25;4.70;;;;;;;15.10;100.00;95046.75;5083993;28;20516;-75
2022/08/16 05:45:33;;;;;;;8.27;4.10;;;;;;;15.15;100.00;95060.66;5089084;28;20043;-75
2022/08/16 05:47:59;;;;;;;8.05;4.60;;;;;;;15.12;100.00;95057.84;5083588;28;20037;-75
2022/08/16 05:50:25;;;;;;;8.50;4.28;;;;;;;15.18;100.00;95053.94;5082160;28;20115;-75
2022/08/16 05:52:50;;;;;;;7.57;4.35;;;;;;;15.12;100.00;95049.91;5084565;28;20045;-75
2022/08/16 05:55:16;;;;;;;8.63;4.00;;;;;;;15.20;100.00;95057.06;5090655;28;20036;-75
2022/08/16 05:57:44;;;;;;;10.02;4.40;;;;;;;15.31;100.00;95053.03;5084980;28;20041;-75
2022/08/16 06:00:12;;;;;;;6.78;3.90;;;;;;;15.39;100.00;95052.25;5083238;28;20129;-75
2022/08/16 06:02:39;;;;;;;7.85;4.03;;;;;;;15.54;100.00;95055.53;5086531;28;20042;-75
2022/08/16 06:05:06;;;;;;;8.07;3.67;;;;;;;15.66;100.00;95057.56;5088669;28;20044;-75
2022/08/16 06:07:31;;;;;;;8.98;3.97;;;;;;;15.72;100.00;95051.81;5091414;28;20516;-76
2022/08/16 06:09:58;;;;;;;7.00;4.00;;;;;;;15.90;100.00;95062.44;5085433;28;20044;-76
2022/08/16 06:12:25;;;;;;;7.05;3.63;;;;;;;16.02;100.00;95057.28;5077048;28;20035;-76
2022/08/16 06:14:50;;;;;;;6.85;3.75;;;;;;;16.14;100.00;95061.94;5077093;28;20150;-75
2022/08/16 06:17:16;;;;;;;11.43;3.65;;;;;;;16.22;100.00;95057.69;5084907;28;20514;-75
2022/08/16 06:19:42;;;;;;;6.50;3.45;;;;;;;16.28;100.00;95062.53;5090023;28;20040;-75
2022/08/16 06:22:08;;;;;;;5.32;3.20;;;;;;;16.42;100.00;95062.34;5090991;28;20047;-74
2022/08/16 06:24:34;;;;;;;7.53;3.45;;;;;;;16.54;100.00;95058.25;5085930;28;20123;-75
2022/08/16 06:27:00;;;;;;;6.85;3.45;;;;;;;16.74;100.00;95056.75;5092380;28;20040;-76
2022/08/16 06:29:26;;;;;;;7.60;3.60;;;;;;;16.86;100.00;95048.09;5085482;28;20043;-76
2022/08/16 06:31:52;;;;;;;9.27;3.47;;;;;;;16.95;100.00;95046.19;5088147;28;20040;-75
2022/08/16 06:34:17;;;;;;;6.88;3.22;;;;;;;17.13;100.00;95052.97;5086359;28;20047;-77
2022/08/16 06:36:43;;;;;;;5.88;3.08;;;;;;;17.16;100.00;95058.75;5089012;28;20063;-76
2022/08/16 06:39:08;;;;;;;7.07;3.45;;;;;;;17.13;100.00;95063.59;5090863;28;20040;-77
2022/08/16 06:41:34;;;;;;;10.75;3.70;;;;;;;17.28;100.00;95062.28;5078679;28;20097;-77
2022/08/16 06:44:00;;;;;;;7.30;3.38;;;;;;;17.41;100.00;95057.81;5081198;28;20473;-76
2022/08/16 06:46:38;;;;;;;7.25;3.10;;;;;;;17.49;100.00;95056.94;5078848;28;20036;-76
2022/08/16 06:49:08;;;;;;;9.95;3.17;;;;;;;17.64;100.00;95055.59;5081905;28;20051;-77
2022/08/16 06:51:35;;;;;;;12.18;3.67;;;;;;;17.71;100.00;95071.03;5074374;28;20046;-77
2022/08/16 06:54:01;;;;;;;6.65;3.55;;;;;;;17.89;100.00;95068.25;5091125;28;20085;-74
2022/08/16 06:56:27;;;;;;;7.80;2.90;;;;;;;18.04;99.91;95066.88;5084112;28;20040;-75
2022/08/16 06:58:53;;;;;;;6.45;3.28;;;;;;;18.22;93.23;95051.53;5084398;28;20035;-76
2022/08/16 07:01:22;;;;;;;6.20;2.90;;;;;;;18.12;96.64;95058.81;5085203;28;20054;-76
2022/08/16 07:03:49;;;;;;;7.22;3.15;;;;;;;18.10;99.80;95066.34;5084750;28;20040;-77
2022/08/16 07:06:15;;;;;;;9.23;3.17;;;;;;;18.29;94.47;95067.75;5090498;28;20481;-76
2022/08/16 07:08:41;;;;;;;4.32;2.70;;;;;;;18.46;93.76;95056.91;5083971;28;20040;-78
2022/08/16 07:11:08;;;;;;;6.80;3.33;;;;;;;18.59;90.16;95062.22;5089564;28;20048;-75
2022/08/16 07:13:34;;;;;;;6.63;3.38;;;;;;;18.60;86.91;95061.91;5086975;28;20668;-75
2022/08/16 07:16:01;;;;;;;6.80;3.20;;;;;;;18.78;84.60;95067.03;5074112;28;20052;-76
2022/08/16 07:18:27;;;;;;;4.72;3.25;;;;;;;18.90;81.19;95060.97;5088112;28;20032;-76
2022/08/16 07:20:53;;;;;;;7.43;3.45;;;;;;;18.91;80.16;95054.53;5080194;28;20044;-75
2022/08/16 07:23:20;;;;;;;6.07;3.30;;;;;;;18.87;83.40;95060.50;5085797;28;20048;-76
2022/08/16 07:25:46;;;;;;;5.65;3.35;;;;;;;18.84;83.28;95061.13;5085830;28;20039;-75
2022/08/16 07:28:14;;;;;;;7.57;3.30;;;;;;;18.72;85.05;95047.81;5088139;28;20036;-75
2022/08/16 07:30:40;;;;;;;5.20;3.08;;;;;;;19.03;85.36;95057.19;5082181;28;20569;-75
2022/08/16 07:33:08;;;;;;;10.40;3.40;;;;;;;19.28;82.49;95051.81;5084010;28;20725;-76
2022/08/16 07:35:34;;;;;;;8.15;3.40;;;;;;;19.29;81.19;95053.38;5085450;28;20063;-76
2022/08/16 07:38:00;;;;;;;5.55;3.47;;;;;;;19.16;78.54;95040.03;5086633;28;20036;-80
2022/08/16 07:40:26;;;;;;;5.55;3.55;;;;;;;19.31;77.81;95048.47;5083802;28;20067;-80
2022/08/16 07:42:52;;;;;;;8.10;3.50;;;;;;;19.59;78.23;95045.84;5085888;28;20044;-81
2022/08/16 07:45:18;;;;;;;10.73;4.30;;;;;;;19.47;79.18;95049.34;5090846;28;20031;-78
2022/08/16 07:47:44;;;;;;;8.77;3.90;;;;;;;19.52;80.64;95051.78;5090847;28;20040;-79
2022/08/16 07:50:12;;;;;;;7.60;3.70;;;;;;;19.70;73.96;95040.81;5087619;28;20047;-79
2022/08/16 07:52:38;;;;;;;7.03;3.90;;;;;;;20.10;72.27;95053.38;5080848;28;20032;-76
2022/08/16 07:55:04;;;;;;;7.28;4.00;;;;;;;19.98;72.91;95045.41;5091062;28;20040;-77
2022/08/16 07:57:29;;;;;;;9.52;4.03;;;;;;;20.22;72.80;95049.84;5075831;28;20044;-78
2022/08/16 07:59:55;;;;;;;7.72;4.05;;;;;;;20.11;73.45;95052.22;5084836;28;20044;-77
2022/08/16 08:02:20;;;;;;;6.97;4.20;;;;;;;20.02;74.70;95051.63;5087290;28;20043;-75
2022/08/16 08:04:47;;;;;;;10.32;5.43;;;;;;;19.97;73.26;95055.31;5088603;28;20093;-75
2022/08/16 08:07:12;;;;;;;7.97;4.00;;;;;;;19.98;72.89;95056.09;5084747;28;20041;-75
2022/08/16 08:09:38;;;;;;;7.65;4.55;;;;;;;19.98;73.24;95048.84;5083839;28;20570;-77
2022/08/16 08:12:04;;;;;;;6.88;4.60;;;;;;;20.61;70.51;95055.41;5082472;28;20062;-81
2022/08/16 08:14:32;;;;;;;6.45;4.15;;;;;;;20.66;69.14;95062.38;5089513;28;20044;-79
2022/08/16 08:16:58;;;;;;;10.82;4.90;;;;;;;20.58;69.06;95056.09;5094119;28;20036;-77
2022/08/16 08:19:24;;;;;;;9.23;5.00;;;;;;;20.56;68.97;95053.00;5087800;28;20048;-76
2022/08/16 08:21:53;;;;;;;10.73;4.88;;;;;;;20.43;68.72;95049.63;5086126;28;20394;-77
2022/08/16 08:24:21;;;;;;;9.20;4.70;;;;;;;20.56;68.60;95064.47;5082018;28;20051;-75
2022/08/16 08:26:46;;;;;;;9.60;5.20;;;;;;;20.53;67.93;95059.81;5087536;28;20414;-76
2022/08/16 08:29:12;;;;;;;8.95;4.75;;;;;;;20.71;67.86;95054.16;5082380;28;20066;-76
2022/08/16 08:31:40;;;;;;;9.20;4.97;;;;;;;21.16;66.49;95058.25;5081871;28;20490;-74
2022/08/16 08:34:06;;;;;;;10.25;5.18;;;;;;;21.23;64.64;95057.63;5088112;28;20036;-74
2022/08/16 08:36:35;;;;;;;9.77;6.03;;;;;;;21.25;63.96;95061.50;5092294;28;20152;-74
2022/08/16 08:39:03;;;;;;;10.35;5.75;;;;;;;21.24;65.68;95070.66;5094192;28;20051;-76
2022/08/16 08:41:29;;;;;;;8.85;5.15;;;;;;;21.06;66.73;95066.78;5088905;28;20123;-76
2022/08/16 08:43:56;;;;;;;9.25;5.25;;;;;;;20.98;65.75;95062.44;5091386;28;20055;-75
2022/08/16 08:46:24;;;;;;;10.55;5.40;;;;;;;20.96;64.61;95059.31;5092261;28;20036;-76
2022/08/16 08:48:51;;;;;;;9.48;5.13;;;;;;;20.87;68.71;95056.81;5089737;28;20093;-76
2022/08/16 08:51:17;;;;;;;10.85;6.38;;;;;;;20.81;67.38;95056.28;5084627;28;20068;-76
2022/08/16 08:53:44;;;;;;;12.48;5.57;;;;;;;21.15;65.78;95048.69;5093416;28;20046;-76
2022/08/16 08:56:11;;;;;;;10.57;5.65;;;;;;;21.46;65.48;95044.34;5082063;28;20094;-76
2022/08/16 08:58:37;;;;;;;10.52;5.55;;;;;;;21.51;66.05;95052.16;5081307;28;20649;-77
2022/08/16 09:01:06;;;;;;;8.32;5.10;;;;;;;21.69;64.79;95046.38;5091322;28;20047;-77
2022/08/16 09:03:35;;;;;;;8.18;5.43;;;;;;;21.76;64.67;95051.88;5081514;28;20525;-78
2022/08/16 09:06:02;;;;;;;9.45;5.10;;;;;;;22.15;62.99;95046.47;5083950;28;20047;-77
2022/08/16 09:08:30;;;;;;;9.52;5.30;;;;;;;22.21;62.33;95045.09;5085840;28;20085;-76
2022/08/16 09:10:56;;;;;;;11.35;5.57;;;;;;;22.09;63.62;95058.63;5078912;28;20679;-75
2022/08/16 09:13:23;;;;;;;13.43;6.18;;;;;;;22.29;60.57;95049.41;5084114;28;20040;-77
2022/08/16 09:15:54;;;;;;;9.63;5.68;;;;;;;22.54;60.56;95049.13;5092452;28;20043;-76
2022/08/16 09:18:21;;;;;;;9.15;5.18;;;;;;;22.47;60.71;95046.31;5086536;28;20068;-76
2022/08/16 09:20:47;;;;;;;8.93;5.50;;;;;;;22.27;60.85;95049.00;5091258;28;20664;-75
2022/08/16 09:23:14;;;;;;;16.60;5.15;;;;;;;22.29;61.09;95046.75;5078858;28;20044;-75
2022/08/16 09:25:40;;;;;;;9.57;5.10;;;;;;;22.24;61.67;95044.38;5090637;28;20425;-75
2022/08/16 09:28:05;;;;;;;11.45;5.25;;;;;;;22.21;61.38;95039.72;5090922;28;20074;-75
2022/08/16 09:30:34;;;;;;;7.82;5.47;;;;;;;22.62;57.30;95042.72;5087881;28;20441;-75
2022/08/16 09:33:01;;;;;;;8.75;5.22;;;;;;;22.66;56.74;95045.50;5091202;28;20524;-75
2022/08/16 09:35:27;;;;;;;7.43;5.00;;;;;;;22.60;56.77;95050.38;5091234;28;20036;-75
2022/08/16 09:37:53;;;;;;;10.93;5.13;;;;;;;22.70;56.06;95040.16;5090774;28;20036;-75
2022/08/16 09:40:19;;;;;;;7.47;5.07;;;;;;;22.71;56.40;95044.41;5089362;28;20101;-74
2022/08/16 09:42:44;;;;;;;7.68;4.70;;;;;;;22.84;57.06;95037.72;5082453;28;20122;-75
2022/08/16 09:45:10;;;;;;;9.45;5.00;;;;;;;23.00;56.44;95046.41;5090811;28;20051;-75
2022/08/16 09:47:38;;;;;;;7.93;5.03;;;;;;;23.33;53.51;95047.66;5090888;28;20067;-75
2022/08/16 09:50:06;;;;;;;10.77;5.07;;;;;;;23.31;54.40;95044.56;5088940;28;20047;-75
2022/08/16 09:52:34;;;;;;;9.27;5.43;;;;;;;23.26;54.47;95047.56;5090863;28;20044;-75
2022/08/16 09:55:02;;;;;;;8.63;5.03;;;;;;;23.24;53.65;95039.09;5090763;28;20036;-75
2022/08/16 09:57:27;;;;;;;8.18;5.00;;;;;;;23.39;53.64;95033.91;5078154;28;20111;-75
2022/08/16 09:59:53;;;;;;;8.55;5.15;;;;;;;23.41;54.20;95026.28;5087539;28;20335;-75
2022/08/16 10:02:19;;;;;;;7.07;4.53;;;;;;;23.50;52.75;95024.09;5090893;28;20813;-75
2022/08/16 10:04:44;;;;;;;7.80;4.65;;;;;;;23.69;52.18;95021.28;5090579;28;20062;-75
2022/08/16 10:07:10;;;;;;;8.82;5.00;;;;;;;23.94;52.05;95020.81;5083236;28;20037;-75
2022/08/16 10:09:35;;;;;;;10.05;4.70;;;;;;;24.14;52.48;95023.31;5084442;28;20052;-75
2022/08/16 10:14:45;;;;;;;7.78;4.55;;;;;;;24.83;50.33;95024.72;5089814;28;20680;-75
2022/08/16 10:17:11;;;;;;;8.13;4.70;;;;;;;25.07;45.53;95018.72;5090500;28;20044;-75
2022/08/16 10:19:36;;;;;;;7.88;4.55;;;;;;;24.98;46.76;95020.97;5090315;28;20040;-75
2022/08/16 10:22:02;;;;;;;7.28;4.47;;;;;;;25.26;45.76;95019.59;5088848;28;20047;-76
2022/08/16 10:24:27;;;;;;;11.35;4.53;;;;;;;25.21;45.55;95017.25;5090388;28;20044;-76
2022/08/16 10:26:53;;;;;;;8.25;4.60;;;;;;;25.32;47.58;95020.81;5089866;28;20043;-76
2022/08/16 10:29:19;;;;;;;6.18;4.47;;;;;;;25.23;46.37;95017.66;5088307;28;20073;-76
2022/08/16 10:31:44;;;;;;;9.93;4.55;;;;;;;25.30;47.50;95020.41;5089851;28;20040;-76
2022/08/16 10:34:10;;;;;;;7.43;4.30;;;;;;;25.28;47.43;95028.06;5090136;28;20042;-76
2022/08/16 10:36:36;;;;;;;6.65;4.10;;;;;;;25.05;46.64;95021.00;5090132;28;20154;-74
2022/08/16 10:39:02;;;;;;;9.15;4.45;;;;;;;24.99;46.83;95022.50;5076070;28;20055;-75
2022/08/16 10:41:28;;;;;;;7.95;4.20;;;;;;;25.21;45.41;95022.66;5088285;28;20044;-75
2022/08/16 10:43:53;;;;;;;6.70;4.25;;;;;;;25.90;42.76;95019.16;5089805;28;20042;-75
2022/08/16 10:46:19;;;;;;;5.75;4.22;;;;;;;26.44;41.69;95007.72;5090059;28;20059;-75
2022/08/16 10:48:45;;;;;;;8.57;4.53;;;;;;;26.89;40.28;95015.44;5088424;28;20039;-75
2022/08/16 10:51:11;;;;;;;9.02;4.38;;;;;;;27.67;41.13;95008.38;5082020;28;20043;-74
2022/08/16 10:53:37;;;;;;;11.68;4.25;;;;;;;27.89;39.80;95011.72;5089597;28;20417;-75
2022/08/16 10:56:11;;;;;;;8.57;4.63;;;;;;;27.55;38.21;95012.25;5087933;28;20115;-75
2022/08/16 10:58:39;;;;;;;8.32;4.50;;;;;;;27.60;38.43;95019.19;5076798;28;20040;-76
2022/08/16 11:01:07;;;;;;;8.13;4.53;;;;;;;27.25;39.89;95015.41;5084090;28;20095;-75
2022/08/16 11:03:33;;;;;;;6.63;4.45;;;;;;;26.15;41.57;95006.91;5089450;28;20067;-75
2022/08/16 11:05:59;;;;;;;6.82;4.72;;;;;;;26.36;41.78;95012.34;5088682;28;20044;-75
2022/08/16 11:08:25;;;;;;;9.65;4.70;;;;;;;26.05;41.15;95019.97;5089072;28;20085;-75
2022/08/16 11:10:51;;;;;;;8.65;4.72;;;;;;;26.16;42.28;95020.03;5089387;28;20131;-75
2022/08/16 11:13:22;;;;;;;6.60;4.38;;;;;;;26.30;41.21;95019.25;5088114;28;20055;-75
2022/08/16 11:15:48;;;;;;;6.95;4.10;;;;;;;27.62;39.02;95023.03;5087946;28;20032;-75
2022/08/16 11:18:13;;;;;;;5.95;4.38;;;;;;;28.31;36.48;95020.78;5089459;28;20044;-75
2022/08/16 11:20:41;;;;;;;6.72;4.13;;;;;;;28.17;37.30;95018.94;5086243;28;20060;-75
2022/08/16 11:23:07;;;;;;;6.65;4.15;;;;;;;27.51;36.20;95024.22;5089528;28;20048;-74
2022/08/16 11:25:33;;;;;;;7.00;3.90;;;;;;;26.90;38.40;95017.00;5088997;28;20043;-75
2022/08/16 11:27:59;;;;;;;5.88;4.10;;;;;;;27.89;38.39;95019.06;5088542;28;20044;-75